createdAt,value
2018-07-23T00:01:46.858Z,17.00
2018-07-23T00:04:14.918Z,17.10
2018-07-23T00:06:43.006Z,17.10
2018-07-23T00:09:11.041Z,17.00
2018-07-23T00:11:39.085Z,16.90
2018-07-23T00:14:07.134Z,16.90
2018-07-23T00:16:35.182Z,17.00
2018-07-23T00:19:03.223Z,16.90
2018-07-23T00:21:31.257Z,16.90
2018-07-23T00:23:59.289Z,16.90
2018-07-23T00:28:55.190Z,16.90
2018-07-23T00:33:51.066Z,16.90
2018-07-23T00:36:19.103Z,16.90
2018-07-23T00:38:47.153Z,17.00
2018-07-23T00:41:15.189Z,16.90
2018-07-23T00:43:43.237Z,16.90
2018-07-23T00:46:11.314Z,17.00
2018-07-23T00:48:39.345Z,17.00
2018-07-23T00:51:07.398Z,17.00
2018-07-23T00:56:03.286Z,17.10
2018-07-23T00:58:31.321Z,17.00
2018-07-23T01:00:59.374Z,17.00
2018-07-23T01:03:27.434Z,17.00
2018-07-23T01:05:55.505Z,17.00
2018-07-23T01:08:23.582Z,17.10
2018-07-23T01:10:51.638Z,17.10
2018-07-23T01:15:47.502Z,17.10
2018-07-23T01:18:15.565Z,17.10
2018-07-23T01:20:43.605Z,17.10
2018-07-23T01:23:11.671Z,17.00
2018-07-23T01:25:39.712Z,16.90
2018-07-23T01:28:07.777Z,16.90
2018-07-23T01:30:35.839Z,16.90
2018-07-23T01:33:03.878Z,16.80
2018-07-23T01:35:31.917Z,16.80
2018-07-23T01:37:59.957Z,16.80
2018-07-23T01:40:28.002Z,16.80
2018-07-23T01:45:23.878Z,16.80
2018-07-23T01:47:51.924Z,16.70
2018-07-23T01:50:19.969Z,16.70
2018-07-23T01:52:48.025Z,16.70
2018-07-23T01:55:16.076Z,16.70
2018-07-23T01:57:44.129Z,16.70
2018-07-23T02:00:12.234Z,16.70
2018-07-23T02:02:40.258Z,16.60
2018-07-23T02:05:08.307Z,16.60
2018-07-23T02:07:36.380Z,16.70
2018-07-23T02:10:04.475Z,16.60
2018-07-23T02:12:32.526Z,16.60
2018-07-23T02:15:00.574Z,16.60
2018-07-23T02:17:28.637Z,16.60
2018-07-23T02:19:56.699Z,16.60
2018-07-23T02:24:52.606Z,16.50
2018-07-23T02:29:48.478Z,16.60
2018-07-23T02:32:16.535Z,16.60
2018-07-23T02:34:44.606Z,16.60
2018-07-23T02:37:12.651Z,16.60
2018-07-23T02:39:40.694Z,16.60
2018-07-23T02:42:08.742Z,16.60
2018-07-23T02:44:36.794Z,16.60
2018-07-23T02:47:04.833Z,16.60
2018-07-23T02:49:32.894Z,16.60
2018-07-23T02:52:01.222Z,16.60
2018-07-23T02:56:57.131Z,16.60
2018-07-23T03:01:53.021Z,16.60
2018-07-23T03:04:21.062Z,16.60
2018-07-23T03:06:49.497Z,16.60
2018-07-23T03:09:17.542Z,16.60
2018-07-23T03:11:45.578Z,16.60
2018-07-23T03:19:09.331Z,16.60
2018-07-23T03:21:37.413Z,16.60
2018-07-23T03:24:05.457Z,16.50
2018-07-23T03:26:33.507Z,16.60
2018-07-23T03:29:01.569Z,16.60
2018-07-23T03:31:29.620Z,16.60
2018-07-23T03:33:57.666Z,16.60
2018-07-23T03:38:53.542Z,16.50
2018-07-23T03:41:21.577Z,16.50
2018-07-23T03:43:49.631Z,16.50
2018-07-23T03:46:17.673Z,16.50
2018-07-23T03:48:45.715Z,16.40
2018-07-23T03:51:13.754Z,16.50
2018-07-23T03:56:09.673Z,16.50
2018-07-23T03:58:37.713Z,16.60
2018-07-23T04:06:01.555Z,16.60
2018-07-23T04:08:29.597Z,16.60
2018-07-23T04:10:57.667Z,16.60
2018-07-23T04:13:25.802Z,16.70
2018-07-23T04:15:53.846Z,16.60
2018-07-23T04:18:21.938Z,16.60
2018-07-23T04:20:49.982Z,16.60
2018-07-23T04:23:18.030Z,16.70
2018-07-23T04:25:46.107Z,16.60
2018-07-23T04:28:14.157Z,16.70
2018-07-23T04:30:42.197Z,16.70
2018-07-23T04:33:10.245Z,16.80
2018-07-23T04:35:38.302Z,16.80
2018-07-23T04:38:06.395Z,16.90
2018-07-23T04:40:34.437Z,16.90
2018-07-23T04:43:02.498Z,16.90
2018-07-23T04:45:30.557Z,17.00
2018-07-23T04:47:58.609Z,17.00
2018-07-23T04:50:26.674Z,17.10
2018-07-23T04:52:54.726Z,17.10
2018-07-23T04:55:22.768Z,17.10
2018-07-23T04:57:50.813Z,17.10
2018-07-23T05:00:18.881Z,17.10
2018-07-23T05:02:46.973Z,17.00
2018-07-23T05:05:15.015Z,17.00
2018-07-23T05:07:43.079Z,16.90
2018-07-23T05:15:06.882Z,17.20
2018-07-23T05:17:34.965Z,17.20
2018-07-23T05:20:03.042Z,17.20
2018-07-23T05:22:31.089Z,17.30
2018-07-23T05:24:59.137Z,17.30
2018-07-23T05:27:27.210Z,17.30
2018-07-23T05:32:23.100Z,17.30
2018-07-23T05:34:51.154Z,17.40
2018-07-23T05:37:19.210Z,17.50
2018-07-23T05:39:47.281Z,17.50
2018-07-23T05:42:15.340Z,17.60
2018-07-23T05:44:43.445Z,17.70
2018-07-23T05:47:11.645Z,17.80
2018-07-23T05:49:39.686Z,17.90
2018-07-23T05:52:07.746Z,17.90
2018-07-23T05:54:35.790Z,18.00
2018-07-23T05:57:03.877Z,18.00
2018-07-23T06:02:00.602Z,18.00
2018-07-23T06:04:28.715Z,18.00
2018-07-23T06:06:56.887Z,18.10
2018-07-23T06:09:24.822Z,18.10
2018-07-23T06:11:52.869Z,18.20
2018-07-23T06:14:21.085Z,18.30
2018-07-23T06:16:49.130Z,18.30
2018-07-23T06:19:17.190Z,18.40
2018-07-23T06:21:45.275Z,18.50
2018-07-23T06:26:41.165Z,18.70
2018-07-23T06:29:09.206Z,18.70
2018-07-23T06:31:37.287Z,18.70
2018-07-23T06:34:05.363Z,18.70
2018-07-23T06:36:33.421Z,18.80
2018-07-23T06:39:01.477Z,18.90
2018-07-23T06:41:29.517Z,18.90
2018-07-23T06:43:57.573Z,18.90
2018-07-23T06:46:25.626Z,19.00
2018-07-23T06:51:21.506Z,18.90
2018-07-23T06:53:49.549Z,19.10
2018-07-23T06:56:17.604Z,19.20
2018-07-23T06:58:45.654Z,19.30
2018-07-23T07:01:13.733Z,19.30
2018-07-23T07:03:41.782Z,19.40
2018-07-23T07:06:09.850Z,19.50
2018-07-23T07:08:38.401Z,19.60
2018-07-23T07:11:06.473Z,19.70
2018-07-23T07:13:34.618Z,19.70
2018-07-23T07:16:02.619Z,19.70
2018-07-23T07:18:30.698Z,19.70
2018-07-23T07:20:58.885Z,19.70
2018-07-23T07:23:26.948Z,19.80
2018-07-23T07:25:54.990Z,19.80
2018-07-23T07:28:23.058Z,19.80
2018-07-23T07:30:51.103Z,19.70
2018-07-23T07:33:19.157Z,19.90
2018-07-23T07:35:47.250Z,19.90
2018-07-23T07:38:15.271Z,20.00
2018-07-23T07:40:43.323Z,20.00
2018-07-23T07:43:11.359Z,20.00
2018-07-23T07:45:39.410Z,19.90
2018-07-23T07:48:07.501Z,20.00
2018-07-23T07:50:35.550Z,20.10
2018-07-23T07:53:03.626Z,20.10
2018-07-23T07:55:31.770Z,20.20
2018-07-23T07:57:59.822Z,20.30
2018-07-23T08:00:27.882Z,20.30
2018-07-23T08:02:55.937Z,20.50
2018-07-23T08:05:24.027Z,20.80
2018-07-23T08:07:52.046Z,20.90
2018-07-23T08:10:20.135Z,20.80
2018-07-23T08:12:48.243Z,20.80
2018-07-23T08:15:16.323Z,20.80
2018-07-23T08:17:44.375Z,20.80
2018-07-23T08:20:12.434Z,21.00
2018-07-23T08:22:40.481Z,21.10
2018-07-23T08:25:08.573Z,21.30
2018-07-23T08:27:36.590Z,21.40
2018-07-23T08:30:05.838Z,21.50
2018-07-23T08:32:33.890Z,21.40
2018-07-23T08:35:01.951Z,21.50
2018-07-23T08:37:30.010Z,21.30
2018-07-23T08:39:58.077Z,21.40
2018-07-23T08:42:26.167Z,21.40
2018-07-23T08:44:54.272Z,21.50
2018-07-23T08:47:22.275Z,21.70
2018-07-23T08:49:50.342Z,21.80
2018-07-23T08:52:18.384Z,21.90
2018-07-23T08:54:46.454Z,22.00
2018-07-23T08:57:14.533Z,22.00
2018-07-23T08:59:42.570Z,22.10
2018-07-23T09:02:10.801Z,21.90
2018-07-23T09:04:38.846Z,22.00
2018-07-23T09:07:06.902Z,22.00
2018-07-23T09:09:34.951Z,21.80
2018-07-23T09:12:03.018Z,21.80
2018-07-23T09:14:31.074Z,21.70
2018-07-23T09:16:59.139Z,21.70
2018-07-23T09:19:27.178Z,21.90
2018-07-23T09:21:55.270Z,22.10
2018-07-23T09:24:23.326Z,22.20
2018-07-23T09:26:51.394Z,22.30
2018-07-23T09:29:19.488Z,22.40
2018-07-23T09:31:47.800Z,22.50
2018-07-23T09:34:15.870Z,22.80
2018-07-23T09:36:43.253Z,23.20
2018-07-23T09:39:11.401Z,23.40
2018-07-23T09:44:06.001Z,23.80
2018-07-23T09:46:33.433Z,23.90
2018-07-23T09:49:00.838Z,23.90
2018-07-23T09:53:55.417Z,23.80
2018-07-23T09:56:22.842Z,24.10
2018-07-23T09:58:50.270Z,24.00
2018-07-23T10:01:19.089Z,23.90
2018-07-23T10:06:13.661Z,24.00
2018-07-23T10:11:08.265Z,24.40
2018-07-23T10:13:35.651Z,24.60
2018-07-23T10:16:03.054Z,24.80
2018-07-23T10:18:30.469Z,24.70
2018-07-23T10:20:57.857Z,24.60
2018-07-23T10:23:25.269Z,24.50
2018-07-23T10:25:52.657Z,24.60
2018-07-23T10:28:20.054Z,24.60
2018-07-23T10:30:47.510Z,24.60
2018-07-23T10:33:14.889Z,24.60
2018-07-23T10:35:42.282Z,24.70
2018-07-23T10:40:38.177Z,25.10
2018-07-23T10:43:05.575Z,24.90
2018-07-23T10:45:32.959Z,25.00
2018-07-23T10:48:00.350Z,25.20
2018-07-23T10:50:27.729Z,25.30
2018-07-23T10:52:55.160Z,25.30
2018-07-23T11:00:18.350Z,25.90
2018-07-23T11:02:46.408Z,26.10
2018-07-23T11:05:14.442Z,26.70
2018-07-23T11:07:42.498Z,27.10
2018-07-23T11:10:10.557Z,27.30
2018-07-23T11:12:38.651Z,27.30
2018-07-23T11:15:07.521Z,27.30
2018-07-23T11:17:35.615Z,27.20
2018-07-23T11:20:03.009Z,27.50
2018-07-23T11:22:31.051Z,27.70
2018-07-23T11:24:58.442Z,28.00
2018-07-23T11:27:26.506Z,28.30
2018-07-23T11:32:21.797Z,28.00
2018-07-23T11:37:17.074Z,28.50
2018-07-23T11:39:45.112Z,28.70
2018-07-23T11:42:13.165Z,28.20
2018-07-23T11:44:41.207Z,28.20
2018-07-23T11:47:10.361Z,28.50
2018-07-23T11:52:06.290Z,27.80
2018-07-23T11:54:34.357Z,28.20
2018-07-23T11:57:02.467Z,28.10
2018-07-23T11:59:30.450Z,27.50
2018-07-23T12:01:58.066Z,27.80
2018-07-23T12:06:52.635Z,28.70
2018-07-23T12:11:47.906Z,29.10
2018-07-23T12:14:15.248Z,29.30
2018-07-23T12:16:42.633Z,29.50
2018-07-23T12:19:10.686Z,29.50
2018-07-23T12:21:38.718Z,29.30
2018-07-23T12:24:06.105Z,28.90
2018-07-23T12:26:33.489Z,29.20
2018-07-23T12:29:01.049Z,29.70
2018-07-23T12:33:57.013Z,30.20
2018-07-23T12:36:25.074Z,30.40
2018-07-23T12:38:53.130Z,30.80
2018-07-23T12:41:20.518Z,30.80
2018-07-23T12:43:48.829Z,30.80
2018-07-23T12:46:16.205Z,29.90
2018-07-23T12:53:40.233Z,29.50
2018-07-23T12:56:07.820Z,30.00
2018-07-23T13:01:02.530Z,30.90
2018-07-23T13:03:29.920Z,31.50
2018-07-23T13:05:57.305Z,31.40
2018-07-23T13:08:25.366Z,31.50
2018-07-23T13:10:52.750Z,31.40
2018-07-23T13:13:20.124Z,31.10
2018-07-23T13:18:15.336Z,30.90
2018-07-23T13:20:42.716Z,31.20
2018-07-23T13:23:10.098Z,31.60
2018-07-23T13:28:04.700Z,32.20
2018-07-23T13:30:32.086Z,32.20
2018-07-23T13:32:59.473Z,32.50
2018-07-23T13:35:26.964Z,32.60
2018-07-23T13:37:54.408Z,32.10
2018-07-23T13:40:21.741Z,32.30
2018-07-23T13:42:49.146Z,32.40
2018-07-23T13:45:16.525Z,32.10
2018-07-23T13:47:43.946Z,32.00
2018-07-23T13:50:11.326Z,32.30
2018-07-23T13:52:38.729Z,32.30
2018-07-23T13:55:06.120Z,32.10
2018-07-23T14:00:01.742Z,31.80
2018-07-23T14:02:29.784Z,31.40
2018-07-23T14:04:57.177Z,31.30
2018-07-23T14:07:25.222Z,31.40
2018-07-23T14:09:52.641Z,31.50
2018-07-23T14:12:20.018Z,31.60
2018-07-23T14:14:47.418Z,31.50
2018-07-23T14:17:15.458Z,31.40
2018-07-23T14:19:42.845Z,31.50
2018-07-23T14:22:10.882Z,31.30
2018-07-23T14:24:38.270Z,30.90
2018-07-23T14:27:05.649Z,30.10
2018-07-23T14:29:33.706Z,30.20
2018-07-23T14:32:01.762Z,30.50
2018-07-23T14:34:29.802Z,30.80
2018-07-23T14:36:57.181Z,30.50
2018-07-23T14:39:24.573Z,30.70
2018-07-23T14:44:19.127Z,30.60
2018-07-23T14:46:46.505Z,30.70
2018-07-23T14:49:14.569Z,30.70
2018-07-23T14:51:42.606Z,30.60
2018-07-23T14:54:09.994Z,31.10
2018-07-23T14:56:37.372Z,31.10
2018-07-23T15:01:32.429Z,31.30
2018-07-23T15:03:59.809Z,31.20
2018-07-23T15:06:27.198Z,31.30
2018-07-23T15:08:54.581Z,31.40
2018-07-23T15:11:22.622Z,31.30
2018-07-23T15:13:50.686Z,31.00
2018-07-23T15:18:46.574Z,30.80
2018-07-23T15:21:13.956Z,30.80
2018-07-23T15:23:41.349Z,31.10
2018-07-23T15:26:08.737Z,31.40
2018-07-23T15:31:03.959Z,30.60
2018-07-23T15:33:31.333Z,30.40
2018-07-23T15:35:59.370Z,30.00
2018-07-23T15:38:27.426Z,29.60
2018-07-23T15:40:55.465Z,29.40
2018-07-23T15:43:23.538Z,29.70
2018-07-23T15:45:51.679Z,30.00
2018-07-23T15:48:19.597Z,29.70
2018-07-23T15:53:15.466Z,29.70
2018-07-23T15:55:43.618Z,30.00
2018-07-23T15:58:11.641Z,29.90
2018-07-23T16:00:39.686Z,29.50
2018-07-23T16:03:07.722Z,29.80
2018-07-23T16:08:03.609Z,29.50
2018-07-23T16:10:31.649Z,29.60
2018-07-23T16:12:59.694Z,29.60
2018-07-23T16:15:27.072Z,29.80
2018-07-23T16:17:54.497Z,30.20
2018-07-23T16:20:21.874Z,30.30
2018-07-23T16:22:49.253Z,30.50
2018-07-23T16:25:16.641Z,30.40
2018-07-23T16:27:44.089Z,30.50
2018-07-23T16:30:12.121Z,30.40
2018-07-23T16:32:39.520Z,30.30
2018-07-23T16:35:09.485Z,29.90
2018-07-23T16:40:05.607Z,29.40
2018-07-23T16:45:01.451Z,29.60
2018-07-23T16:47:28.829Z,29.70
2018-07-23T16:49:56.879Z,29.80
2018-07-23T16:52:24.913Z,29.60
2018-07-23T16:54:52.989Z,29.30
2018-07-23T16:57:21.121Z,29.40
2018-07-23T16:59:49.157Z,29.30
2018-07-23T17:02:17.181Z,29.20
2018-07-23T17:07:13.058Z,28.90
2018-07-23T17:09:41.097Z,28.90
2018-07-23T17:12:09.146Z,28.80
2018-07-23T17:14:37.186Z,28.90
2018-07-23T17:17:05.239Z,28.80
2018-07-23T17:19:33.276Z,28.70
2018-07-23T17:22:01.318Z,28.70
2018-07-23T17:24:29.357Z,28.80
2018-07-23T17:26:57.393Z,28.90
2018-07-23T17:29:25.421Z,28.90
2018-07-23T17:31:53.453Z,28.70
2018-07-23T17:34:21.493Z,28.60
2018-07-23T17:36:49.561Z,28.40
2018-07-23T17:41:45.506Z,28.30
2018-07-23T17:44:13.553Z,28.20
2018-07-23T17:46:41.589Z,28.10
2018-07-23T17:49:09.624Z,28.10
2018-07-23T17:51:37.009Z,28.00
2018-07-23T17:54:05.054Z,27.90
2018-07-23T17:56:32.465Z,27.80
2018-07-23T17:58:59.845Z,27.70
2018-07-23T18:01:27.885Z,27.60
2018-07-23T18:03:55.264Z,27.50
2018-07-23T18:06:22.736Z,27.30
2018-07-23T18:08:50.048Z,27.20
2018-07-23T18:11:18.669Z,27.00
2018-07-23T18:13:46.673Z,26.80
2018-07-23T18:16:14.714Z,26.60
2018-07-23T18:18:42.786Z,26.60
2018-07-23T18:21:10.823Z,26.50
2018-07-23T18:23:38.929Z,26.30
2018-07-23T18:26:06.989Z,26.20
2018-07-23T18:31:02.868Z,26.00
2018-07-23T18:33:30.902Z,25.90
2018-07-23T18:35:58.949Z,25.80
2018-07-23T18:38:27.110Z,25.70
2018-07-23T18:40:55.050Z,25.60
2018-07-23T18:43:23.097Z,25.60
2018-07-23T18:45:51.153Z,25.50
2018-07-23T18:49:44.913Z,25.40
2018-07-23T18:52:13.623Z,25.30
2018-07-23T18:54:42.637Z,25.20
2018-07-23T18:57:10.965Z,25.20
2018-07-23T18:59:39.060Z,25.10
2018-07-23T19:04:36.177Z,24.90
2018-07-23T19:07:04.449Z,24.90
2018-07-23T19:12:00.842Z,24.70
2018-07-23T19:14:29.093Z,24.60
2018-07-23T19:16:58.079Z,24.50
2018-07-23T19:19:26.121Z,24.40
2018-07-23T19:21:54.153Z,24.30
2018-07-23T19:24:22.209Z,24.20
2018-07-23T19:26:50.245Z,24.10
2018-07-23T19:29:18.297Z,23.90
2018-07-23T19:31:46.354Z,23.90
2018-07-23T19:34:14.413Z,23.80
2018-07-23T19:39:10.717Z,23.70
2018-07-23T19:44:05.757Z,23.60
2018-07-23T19:46:33.145Z,23.50
2018-07-23T19:51:27.729Z,23.40
2018-07-23T19:56:22.311Z,23.30
2018-07-23T19:58:49.706Z,23.20
2018-07-23T20:01:18.086Z,23.10
2018-07-23T20:03:45.485Z,23.10
2018-07-23T20:06:13.656Z,23.10
2018-07-23T20:08:41.670Z,23.00
2018-07-23T20:11:09.718Z,23.00
2018-07-23T20:13:37.093Z,22.90
2018-07-23T20:16:04.524Z,22.90
2018-07-23T20:18:32.583Z,22.90
2018-07-23T20:21:00.626Z,22.90
2018-07-23T20:25:56.489Z,22.70
2018-07-23T20:28:24.562Z,22.70
2018-07-23T20:30:52.593Z,22.70
2018-07-23T20:33:20.679Z,22.60
2018-07-23T20:35:48.057Z,22.60
2018-07-23T20:38:15.459Z,22.50
2018-07-23T20:40:43.522Z,22.50
2018-07-23T20:43:10.973Z,22.50
2018-07-23T20:45:39.029Z,22.50
2018-07-23T20:48:07.077Z,22.40
2018-07-23T20:53:03.006Z,22.30
2018-07-23T20:55:31.073Z,22.20
2018-07-23T20:57:59.157Z,22.20
2018-07-23T21:00:27.260Z,22.10
2018-07-23T21:02:55.282Z,22.00
2018-07-23T21:05:23.343Z,22.00
2018-07-23T21:07:51.405Z,22.00
2018-07-23T21:10:18.797Z,22.00
2018-07-23T21:12:46.234Z,22.00
2018-07-23T21:15:14.281Z,21.90
2018-07-23T21:17:41.705Z,21.80
2018-07-23T21:22:38.289Z,21.70
2018-07-23T21:25:06.435Z,21.60
2018-07-23T21:27:34.445Z,21.60
2018-07-23T21:30:02.678Z,21.50
2018-07-23T21:32:30.757Z,21.50
2018-07-23T21:34:58.786Z,21.40
2018-07-23T21:37:26.834Z,21.30
2018-07-23T21:39:54.897Z,21.30
2018-07-23T21:42:22.946Z,21.30
2018-07-23T21:44:51.021Z,21.20
2018-07-23T21:47:19.073Z,21.20
2018-07-23T21:49:47.146Z,21.10
2018-07-23T21:52:15.194Z,21.10
2018-07-23T21:57:11.690Z,20.90
2018-07-23T21:59:39.750Z,20.90
2018-07-23T22:02:08.272Z,20.90
2018-07-23T22:04:36.314Z,20.80
2018-07-23T22:07:04.426Z,20.70
2018-07-23T22:09:32.486Z,20.70
2018-07-23T22:12:00.538Z,20.70
2018-07-23T22:14:28.601Z,20.60
2018-07-23T22:16:56.662Z,20.60
2018-07-23T22:19:24.723Z,20.50
2018-07-23T22:21:52.758Z,20.40
2018-07-23T22:24:20.805Z,20.40
2018-07-23T22:26:48.851Z,20.30
2018-07-23T22:29:16.881Z,20.30
2018-07-23T22:31:44.973Z,20.20
2018-07-23T22:34:13.014Z,20.20
2018-07-23T22:36:41.065Z,20.10
2018-07-23T22:39:10.405Z,20.10
2018-07-23T22:41:38.850Z,20.10
2018-07-23T22:44:06.941Z,20.00
2018-07-23T22:46:35.010Z,20.00
2018-07-23T22:49:03.060Z,19.90
2018-07-23T22:51:31.298Z,19.90
2018-07-23T22:53:59.369Z,19.80
2018-07-23T22:58:55.314Z,19.70
2018-07-23T23:01:23.373Z,19.70
2018-07-23T23:03:51.452Z,19.80
2018-07-23T23:06:19.514Z,19.70
2018-07-23T23:08:47.674Z,19.70
2018-07-23T23:11:15.725Z,19.60
2018-07-23T23:13:43.798Z,19.60
2018-07-23T23:16:11.853Z,19.60
2018-07-23T23:18:39.914Z,19.60
2018-07-23T23:21:08.022Z,19.50
2018-07-23T23:23:36.054Z,19.50
2018-07-23T23:28:32.114Z,19.40
2018-07-23T23:31:00.194Z,19.30
2018-07-23T23:33:28.277Z,19.30
2018-07-23T23:38:24.192Z,19.20
2018-07-23T23:40:52.254Z,19.20
2018-07-23T23:43:20.316Z,19.20
2018-07-23T23:45:48.369Z,19.10
2018-07-23T23:48:16.440Z,19.10
2018-07-23T23:50:44.489Z,19.10
2018-07-23T23:53:12.526Z,19.00
2018-07-23T23:55:40.614Z,19.00
2018-07-23T23:58:08.649Z,19.00
